Time;durP1;ratioP1;P1;durP2;ratioP2;P2;SDS_P1;SDS_P2;PMS_P1;PMS_P2;Temp;Humidity;BMP_temperature;BMP_pressure;BME280_temperature;BME280_humidity;BME280_pressure;Samples;Min_cycle;Max_cycle;Signal;HPM_P1;HPM_P2
2023/08/19 00:00:44;;;;;;;3.88;2.88;;;;;;;;;;5860661;28;20045;-74
2023/08/19 00:03:35;;;;;;;4.97;2.63;;;;;;;;;;5850600;28;20045;-74
2023/08/19 00:06:39;;;;;;;3.05;2.17;;;;;;;;;;5837964;28;20057;-74
2023/08/19 00:09:34;;;;;;;3.85;2.42;;;;;;;;;;5820523;28;20136;-74
2023/08/19 00:12:31;;;;;;;3.53;2.65;;;;;;;;;;5837801;28;20045;-74
2023/08/19 00:15:22;;;;;;;5.40;2.50;;;;;;;;;;5838130;28;20507;-74
2023/08/19 00:18:19;;;;;;;2.88;2.55;;;;;;;;;;5837878;28;20053;-73
2023/08/19 00:21:09;;;;;;;5.82;1.95;;;;;;;;;;5837601;28;20058;-74
2023/08/19 00:24:07;;;;;;;3.25;2.90;;;;;;;;;;5838278;28;20052;-74
2023/08/19 00:26:59;;;;;;;2.83;2.38;;;;;;;;;;5837526;28;20049;-74
2023/08/19 00:29:57;;;;;;;2.28;1.95;;;;;;;;;;5838406;28;20369;-74
2023/08/19 00:32:47;;;;;;;6.95;3.50;;;;;;;;;;5837530;28;20048;-74
2023/08/19 00:35:52;;;;;;;2.70;2.45;;;;;;;;;;5821009;28;20056;-74
2023/08/19 00:38:44;;;;;;;4.05;2.92;;;;;;;;;;5837375;28;20053;-74
2023/08/19 00:41:41;;;;;;;5.82;3.20;;;;;;;;;;5837955;28;20405;-74
2023/08/19 00:44:33;;;;;;;3.47;2.53;;;;;;;;;;5837954;28;20041;-74
2023/08/19 00:47:31;;;;;;;4.63;2.67;;;;;;;;;;5837413;28;20504;-73
2023/08/19 00:50:25;;;;;;;4.97;3.30;;;;;;;;;;5819819;28;20156;-75
2023/08/19 00:53:22;;;;;;;3.83;2.15;;;;;;;;;;5820404;28;20060;-74
2023/08/19 00:56:13;;;;;;;5.28;3.35;;;;;;;;;;5837511;28;20561;-74
2023/08/19 00:59:11;;;;;;;3.95;2.63;;;;;;;;;;5820903;28;20046;-74
2023/08/19 01:02:03;;;;;;;4.85;3.17;;;;;;;;;;5820326;28;20050;-74
2023/08/19 01:05:00;;;;;;;3.13;2.75;;;;;;;;;;5837525;28;20046;-74
2023/08/19 01:07:59;;;;;;;5.30;3.28;;;;;;;;;;5819674;28;20045;-73
2023/08/19 01:11:21;;;;;;;4.10;2.70;;;;;;;;;;5821125;28;20409;-74
2023/08/19 01:14:50;;;;;;;3.67;2.08;;;;;;;;;;5837041;28;20046;-73
2023/08/19 01:17:49;;;;;;;27.98;2.83;;;;;;;;;;5836801;28;20046;-73
2023/08/19 01:20:41;;;;;;;3.53;2.60;;;;;;;;;;5819887;28;20116;-74
2023/08/19 01:23:42;;;;;;;4.07;2.58;;;;;;;;;;5836514;28;20049;-74
2023/08/19 01:26:33;;;;;;;4.85;3.55;;;;;;;;;;5819120;28;20137;-73
2023/08/19 01:29:31;;;;;;;3.57;2.80;;;;;;;;;;5836101;28;20394;-73
2023/08/19 01:32:23;;;;;;;6.35;2.80;;;;;;;;;;5818686;28;20076;-73
2023/08/19 01:35:21;;;;;;;2.92;2.58;;;;;;;;;;5836711;28;20417;-75
2023/08/19 01:38:38;;;;;;;4.32;2.85;;;;;;;;;;5820010;28;20484;-75
2023/08/19 01:41:30;;;;;;;4.50;2.70;;;;;;;;;;5820888;28;20056;-73
2023/08/19 01:44:27;;;;;;;6.30;3.38;;;;;;;;;;5820033;28;20042;-75
2023/08/19 01:47:17;;;;;;;3.97;2.63;;;;;;;;;;5836155;28;20662;-74
2023/08/19 01:50:15;;;;;;;3.60;2.95;;;;;;;;;;5835822;28;20082;-75
2023/08/19 01:53:06;;;;;;;3.80;2.30;;;;;;;;;;5836269;28;20054;-74
2023/08/19 01:56:03;;;;;;;3.28;2.85;;;;;;;;;;5818866;28;20073;-74
2023/08/19 01:58:54;;;;;;;3.00;2.40;;;;;;;;;;5835694;28;20057;-75
2023/08/19 02:01:51;;;;;;;5.97;2.53;;;;;;;;;;5835947;28;20052;-74
2023/08/19 02:04:41;;;;;;;14.45;2.70;;;;;;;;;;5835783;28;20050;-73
2023/08/19 02:07:39;;;;;;;4.15;2.70;;;;;;;;;;5835908;28;20073;-74
2023/08/19 02:10:32;;;;;;;3.17;2.10;;;;;;;;;;5835455;28;20054;-75
2023/08/19 02:13:30;;;;;;;6.60;3.15;;;;;;;;;;5834660;28;20374;-74
2023/08/19 02:16:20;;;;;;;3.75;3.17;;;;;;;;;;5836011;28;20061;-75
2023/08/19 02:19:18;;;;;;;3.95;2.67;;;;;;;;;;5836156;28;20545;-74
2023/08/19 02:22:08;;;;;;;2.72;2.47;;;;;;;;;;5835590;28;20053;-75
2023/08/19 02:25:07;;;;;;;3.90;2.88;;;;;;;;;;5835341;28;20045;-74
2023/08/19 02:27:57;;;;;;;3.95;2.88;;;;;;;;;;5836291;28;20570;-74
2023/08/19 02:31:01;;;;;;;4.18;2.65;;;;;;;;;;5835747;28;20071;-74
2023/08/19 02:33:52;;;;;;;4.97;2.97;;;;;;;;;;5835915;28;20057;-74
2023/08/19 02:36:50;;;;;;;6.45;3.45;;;;;;;;;;5835235;28;20054;-75
2023/08/19 02:39:48;;;;;;;2.90;1.95;;;;;;;;;;5835812;28;20072;-75
2023/08/19 02:42:41;;;;;;;3.58;2.47;;;;;;;;;;5835836;28;20473;-74
2023/08/19 02:45:41;;;;;;;2.28;2.08;;;;;;;;;;5835447;28;20053;-74
2023/08/19 02:48:31;;;;;;;2.75;2.53;;;;;;;;;;5835788;28;20126;-73
2023/08/19 02:51:29;;;;;;;3.80;2.88;;;;;;;;;;5835490;28;20057;-74
2023/08/19 02:54:20;;;;;;;3.40;2.67;;;;;;;;;;5835550;28;20521;-74
2023/08/19 02:57:18;;;;;;;2.75;2.45;;;;;;;;;;5818928;28;20179;-74
2023/08/19 03:00:09;;;;;;;3.92;2.92;;;;;;;;;;5835518;28;20045;-75
2023/08/19 03:03:07;;;;;;;4.32;3.13;;;;;;;;;;5835622;28;20535;-73
2023/08/19 03:05:59;;;;;;;15.13;3.83;;;;;;;;;;5835912;28;20089;-74
2023/08/19 03:08:57;;;;;;;2.22;2.03;;;;;;;;;;5839662;28;20050;-74
2023/08/19 03:11:47;;;;;;;4.80;2.53;;;;;;;;;;5839521;28;20046;-75
2023/08/19 03:14:45;;;;;;;4.18;2.60;;;;;;;;;;5822873;28;20050;-74
2023/08/19 03:17:35;;;;;;;6.13;4.20;;;;;;;;;;5838937;28;20054;-75
2023/08/19 03:20:34;;;;;;;2.67;2.42;;;;;;;;;;5839613;28;20053;-74
2023/08/19 03:23:26;;;;;;;4.43;3.25;;;;;;;;;;5839378;28;20369;-75
2023/08/19 03:26:24;;;;;;;20.17;3.40;;;;;;;;;;5822707;28;20054;-75
2023/08/19 03:29:14;;;;;;;5.22;2.50;;;;;;;;;;5839195;28;20507;-75
2023/08/19 03:32:12;;;;;;;3.67;2.75;;;;;;;;;;5839058;28;20064;-74
2023/08/19 03:35:03;;;;;;;2.25;1.73;;;;;;;;;;5838875;28;20060;-74
2023/08/19 03:38:02;;;;;;;2.60;2.38;;;;;;;;;;5838557;28;20046;-74
2023/08/19 03:40:53;;;;;;;5.07;2.60;;;;;;;;;;5821912;28;20662;-77
2023/08/19 03:43:50;;;;;;;4.57;3.22;;;;;;;;;;5838816;28;20048;-74
2023/08/19 03:46:41;;;;;;;23.30;3.47;;;;;;;;;;5838812;28;20046;-74
2023/08/19 03:49:39;;;;;;;2.30;1.90;;;;;;;;;;5838361;28;20050;-74
2023/08/19 03:52:30;;;;;;;4.00;2.83;;;;;;;;;;5820896;28;20049;-75
2023/08/19 03:55:29;;;;;;;3.97;3.13;;;;;;;;;;5839004;28;20433;-75
2023/08/19 03:58:20;;;;;;;4.10;1.98;;;;;;;;;;5820938;28;20497;-75
2023/08/19 04:01:18;;;;;;;4.50;3.03;;;;;;;;;;5838650;28;20087;-74
2023/08/19 04:04:09;;;;;;;4.18;2.28;;;;;;;;;;5838809;28;20049;-74
2023/08/19 04:07:06;;;;;;;2.75;2.20;;;;;;;;;;5838710;28;20058;-74
2023/08/19 04:09:57;;;;;;;3.13;2.20;;;;;;;;;;5838596;28;20053;-74
2023/08/19 04:12:55;;;;;;;4.63;2.55;;;;;;;;;;5838207;28;20466;-75
2023/08/19 04:15:45;;;;;;;3.95;3.05;;;;;;;;;;5838475;28;20046;-75
2023/08/19 04:18:43;;;;;;;4.50;3.20;;;;;;;;;;5837797;28;20113;-74
2023/08/19 04:21:33;;;;;;;2.47;2.28;;;;;;;;;;5838627;28;20558;-74
2023/08/19 04:24:34;;;;;;;4.20;2.60;;;;;;;;;;5838049;28;20717;-75
2023/08/19 04:27:24;;;;;;;3.80;2.55;;;;;;;;;;5838080;28;20064;-74
2023/08/19 04:30:22;;;;;;;4.47;3.07;;;;;;;;;;5838104;28;20183;-75
2023/08/19 04:33:14;;;;;;;6.95;2.65;;;;;;;;;;5837263;28;20133;-75
2023/08/19 04:36:12;;;;;;;12.37;3.13;;;;;;;;;;5838306;28;20042;-74
2023/08/19 04:39:07;;;;;;;7.45;2.60;;;;;;;;;;5837176;28;20042;-75
2023/08/19 04:42:04;;;;;;;10.30;4.25;;;;;;;;;;5837907;28;20631;-74
2023/08/19 04:44:54;;;;;;;3.92;2.53;;;;;;;;;;5837536;28;20053;-74
2023/08/19 04:47:52;;;;;;;4.53;2.50;;;;;;;;;;5837238;28;20086;-73
2023/08/19 04:50:42;;;;;;;3.13;2.58;;;;;;;;;;5837477;28;20085;-74
2023/08/19 04:53:40;;;;;;;4.43;3.20;;;;;;;;;;5837343;28;20050;-75
2023/08/19 04:56:30;;;;;;;3.95;2.97;;;;;;;;;;5836711;28;20045;-75
2023/08/19 04:59:28;;;;;;;6.90;3.08;;;;;;;;;;5837251;28;20651;-74
2023/08/19 05:02:18;;;;;;;4.75;3.17;;;;;;;;;;5836686;28;20176;-75
2023/08/19 05:05:16;;;;;;;7.18;3.03;;;;;;;;;;5836515;28;20054;-74
2023/08/19 05:08:07;;;;;;;3.67;2.38;;;;;;;;;;5837368;28;20354;-75
2023/08/19 05:11:04;;;;;;;2.72;2.47;;;;;;;;;;5836775;28;20096;-75
2023/08/19 05:13:54;;;;;;;3.40;3.10;;;;;;;;;;5836624;28;20053;-75
2023/08/19 05:16:52;;;;;;;3.10;2.80;;;;;;;;;;5837014;28;20042;-74
2023/08/19 05:19:42;;;;;;;4.90;3.30;;;;;;;;;;5836550;28;20049;-75
2023/08/19 05:22:40;;;;;;;4.05;2.53;;;;;;;;;;5836840;28;20046;-73
2023/08/19 05:25:30;;;;;;;2.70;2.50;;;;;;;;;;5836736;28;20053;-73
2023/08/19 05:28:28;;;;;;;3.35;2.35;;;;;;;;;;5836651;28;20497;-74
2023/08/19 05:31:19;;;;;;;5.50;3.38;;;;;;;;;;5836040;28;20056;-74
2023/08/19 05:34:16;;;;;;;6.78;3.50;;;;;;;;;;5819657;28;20424;-75
2023/08/19 05:37:06;;;;;;;5.05;1.95;;;;;;;;;;5836881;28;20056;-75
2023/08/19 05:40:05;;;;;;;3.53;3.22;;;;;;;;;;5836056;28;20547;-75
2023/08/19 05:42:55;;;;;;;3.78;2.83;;;;;;;;;;5836182;28;20477;-74
2023/08/19 05:45:53;;;;;;;8.45;3.22;;;;;;;;;;5836369;28;20057;-74
2023/08/19 05:48:50;;;;;;;8.32;2.85;;;;;;;;;;5835830;28;20078;-73
2023/08/19 05:51:40;;;;;;;3.92;3.15;;;;;;;;;;5836550;28;20132;-74
2023/08/19 05:54:38;;;;;;;5.35;2.30;;;;;;;;;;5836413;28;20671;-74
2023/08/19 05:57:28;;;;;;;15.00;2.70;;;;;;;;;;5834953;28;20646;-74
2023/08/19 06:00:26;;;;;;;3.20;2.40;;;;;;;;;;5835707;28;20049;-74
2023/08/19 06:03:16;;;;;;;4.32;2.95;;;;;;;;;;5835935;28;20417;-74
2023/08/19 06:06:14;;;;;;;4.53;2.70;;;;;;;;;;5835533;28;20046;-75
2023/08/19 06:09:04;;;;;;;2.20;1.83;;;;;;;;;;5836058;28;20780;-73
2023/08/19 06:12:04;;;;;;;4.18;2.05;;;;;;;;;;5836164;28;20347;-76
2023/08/19 06:14:55;;;;;;;4.05;2.42;;;;;;;;;;5836029;28;20060;-74
2023/08/19 06:17:53;;;;;;;3.50;2.28;;;;;;;;;;5835538;28;20054;-75
2023/08/19 06:20:43;;;;;;;3.55;2.50;;;;;;;;;;5835388;28;20053;-75
2023/08/19 06:23:41;;;;;;;2.73;2.50;;;;;;;;;;5835853;28;20065;-74
2023/08/19 06:26:32;;;;;;;1.90;1.45;;;;;;;;;;5835766;28;20750;-75
2023/08/19 06:29:29;;;;;;;2.25;1.70;;;;;;;;;;5835713;28;20056;-75
2023/08/19 06:32:20;;;;;;;5.63;2.08;;;;;;;;;;5835669;28;20046;-74
2023/08/19 06:35:18;;;;;;;4.97;2.60;;;;;;;;;;5835495;28;20678;-76
2023/08/19 06:38:18;;;;;;;6.63;2.55;;;;;;;;;;5835305;28;20042;-75
2023/08/19 06:41:17;;;;;;;2.78;2.22;;;;;;;;;;5836961;28;20053;-77
2023/08/19 06:44:09;;;;;;;1.88;1.23;;;;;;;;;;5839776;28;20052;-75
2023/08/19 06:47:09;;;;;;;2.38;1.70;;;;;;;;;;5822837;28;20057;-74
2023/08/19 06:50:00;;;;;;;3.40;1.98;;;;;;;;;;5840218;28;20400;-74
2023/08/19 06:52:58;;;;;;;6.25;2.55;;;;;;;;;;5839671;28;20172;-75
2023/08/19 06:56:14;;;;;;;2.38;1.83;;;;;;;;;;5839972;28;20272;-75
2023/08/19 06:59:20;;;;;;;4.03;1.85;;;;;;;;;;5840149;28;20056;-74
2023/08/19 07:02:11;;;;;;;3.92;1.45;;;;;;;;;;5839625;28;20485;-74
2023/08/19 07:05:15;;;;;;;3.20;1.75;;;;;;;;;;5839758;28;20053;-75
2023/08/19 07:08:09;;;;;;;1.60;1.27;;;;;;;;;;5839306;28;20061;-74
2023/08/19 07:11:08;;;;;;;2.78;1.63;;;;;;;;;;5839699;28;20372;-74
2023/08/19 07:13:59;;;;;;;3.03;1.40;;;;;;;;;;5839242;28;20054;-75
2023/08/19 07:17:00;;;;;;;2.38;2.03;;;;;;;;;;5839670;28;20393;-74
2023/08/19 07:19:54;;;;;;;3.17;1.33;;;;;;;;;;5821760;28;20477;-74
2023/08/19 07:22:52;;;;;;;3.13;1.85;;;;;;;;;;5839211;28;20057;-75
2023/08/19 07:25:43;;;;;;;1.80;1.20;;;;;;;;;;5821626;28;20050;-75
2023/08/19 07:28:41;;;;;;;2.25;1.73;;;;;;;;;;5822722;28;20495;-75
2023/08/19 07:31:32;;;;;;;2.63;1.38;;;;;;;;;;5839332;28;20053;-74
2023/08/19 07:34:30;;;;;;;2.63;1.92;;;;;;;;;;5839439;28;20045;-75
2023/08/19 07:37:21;;;;;;;2.40;1.75;;;;;;;;;;5838421;28;20049;-74
2023/08/19 07:40:19;;;;;;;4.32;1.98;;;;;;;;;;5838408;28;20050;-75
2023/08/19 07:43:10;;;;;;;4.20;1.42;;;;;;;;;;5839296;28;20045;-74
2023/08/19 07:46:07;;;;;;;3.13;1.80;;;;;;;;;;5838730;28;20053;-75
2023/08/19 07:48:58;;;;;;;2.03;1.77;;;;;;;;;;5838769;28;20056;-76
2023/08/19 07:51:55;;;;;;;5.95;2.33;;;;;;;;;;5821244;28;20049;-75
2023/08/19 07:55:00;;;;;;;3.45;2.22;;;;;;;;;;5838601;28;20050;-75
2023/08/19 07:58:05;;;;;;;4.50;1.75;;;;;;;;;;5838156;28;20302;-75
2023/08/19 08:01:02;;;;;;;3.10;1.48;;;;;;;;;;5838398;28;20088;-74
2023/08/19 08:04:00;;;;;;;3.78;1.67;;;;;;;;;;5837925;28;20080;-75
2023/08/19 08:06:51;;;;;;;1.67;1.48;;;;;;;;;;5838298;28;20125;-76
2023/08/19 08:09:49;;;;;;;8.73;1.70;;;;;;;;;;5838334;28;20108;-75
2023/08/19 08:12:39;;;;;;;5.85;1.75;;;;;;;;;;5837287;28;20056;-75
2023/08/19 08:15:37;;;;;;;2.75;1.42;;;;;;;;;;5838093;28;20342;-76
2023/08/19 08:18:27;;;;;;;3.97;1.75;;;;;;;;;;5838169;28;20550;-75
2023/08/19 08:21:25;;;;;;;1.77;1.23;;;;;;;;;;5838125;28;20510;-75
2023/08/19 08:24:15;;;;;;;4.95;2.20;;;;;;;;;;5838056;28;20061;-76
2023/08/19 08:27:13;;;;;;;;;;;;;;;;;;5838444;28;20623;-75
2023/08/19 08:30:11;;;;;;;4.63;1.58;;;;;;;;;;5837657;28;19928;-75
2023/08/19 08:33:04;;;;;;;1.67;1.27;;;;;;;;;;5837320;28;20045;-75
2023/08/19 08:36:02;;;;;;;2.35;1.30;;;;;;;;;;5837461;28;20045;-75
2023/08/19 08:38:53;;;;;;;3.10;1.88;;;;;;;;;;5837690;28;20626;-75
2023/08/19 08:41:50;;;;;;;2.60;1.52;;;;;;;;;;5820864;28;20064;-75
2023/08/19 08:44:48;;;;;;;5.30;1.92;;;;;;;;;;5819701;28;20042;-75
2023/08/19 08:47:46;;;;;;;4.28;1.73;;;;;;;;;;5821140;28;20523;-75
2023/08/19 08:50:37;;;;;;;4.57;2.10;;;;;;;;;;5837622;28;20121;-74
2023/08/19 08:53:35;;;;;;;5.72;2.10;;;;;;;;;;5820275;28;20044;-74
2023/08/19 08:56:26;;;;;;;4.15;1.85;;;;;;;;;;5836745;28;20050;-75
2023/08/19 08:59:24;;;;;;;4.28;1.55;;;;;;;;;;5819892;28;20571;-75
2023/08/19 09:02:16;;;;;;;5.30;1.90;;;;;;;;;;5819182;28;20057;-75
2023/08/19 09:05:18;;;;;;;9.60;2.50;;;;;;;;;;5819879;28;20046;-75
2023/08/19 09:08:15;;;;;;;4.13;2.28;;;;;;;;;;5820025;28;20048;-75
2023/08/19 09:11:21;;;;;;;2.97;1.58;;;;;;;;;;5837056;28;20056;-74
2023/08/19 09:14:39;;;;;;;2.25;1.55;;;;;;;;;;5837064;28;20173;-74
2023/08/19 09:17:37;;;;;;;3.80;1.70;;;;;;;;;;5836320;28;20046;-74
2023/08/19 09:20:28;;;;;;;1.35;1.10;;;;;;;;;;5819558;28;20050;-74
2023/08/19 09:23:29;;;;;;;5.90;2.22;;;;;;;;;;5819658;28;20050;-75
2023/08/19 09:26:21;;;;;;;2.33;1.30;;;;;;;;;;5836249;28;20068;-75
2023/08/19 09:29:19;;;;;;;8.63;1.88;;;;;;;;;;5836394;28;20121;-74
2023/08/19 09:32:10;;;;;;;1.98;1.23;;;;;;;;;;5818868;28;20346;-75
2023/08/19 09:35:12;;;;;;;2.47;1.75;;;;;;;;;;5835821;28;20041;-75
2023/08/19 09:38:03;;;;;;;5.60;1.63;;;;;;;;;;5836420;28;20050;-74
2023/08/19 09:41:06;;;;;;;5.63;1.27;;;;;;;;;;5835712;28;20137;-75
2023/08/19 09:43:57;;;;;;;1.53;0.87;;;;;;;;;;5818534;28;20046;-75
2023/08/19 09:46:56;;;;;;;2.22;1.20;;;;;;;;;;5835630;28;20101;-74
2023/08/19 09:49:52;;;;;;;3.47;1.40;;;;;;;;;;5818092;28;20125;-74
2023/08/19 09:52:58;;;;;;;3.53;2.00;;;;;;;;;;5835858;28;20409;-75
2023/08/19 09:55:50;;;;;;;2.58;1.10;;;;;;;;;;5836088;28;20053;-75
2023/08/19 09:58:51;;;;;;;1.92;1.30;;;;;;;;;;5836101;28;20081;-75
2023/08/19 10:01:41;;;;;;;2.53;1.50;;;;;;;;;;5835681;28;20038;-74
2023/08/19 10:04:39;;;;;;;1.55;1.23;;;;;;;;;;5818605;28;20046;-76
2023/08/19 10:07:32;;;;;;;2.33;1.30;;;;;;;;;;5835418;28;20056;-75
2023/08/19 10:10:31;;;;;;;3.50;1.50;;;;;;;;;;5835738;28;20483;-73
2023/08/19 10:13:31;;;;;;;10.02;1.10;;;;;;;;;;5819144;28;20053;-75
2023/08/19 10:16:24;;;;;;;3.42;1.08;;;;;;;;;;5835257;28;20045;-75
2023/08/19 10:19:22;;;;;;;1.65;0.85;;;;;;;;;;5819492;28;20045;-75
2023/08/19 10:22:15;;;;;;;6.20;1.55;;;;;;;;;;5835501;28;20046;-75
2023/08/19 10:25:14;;;;;;;2.42;1.48;;;;;;;;;;5818764;28;20081;-75
2023/08/19 10:28:10;;;;;;;3.58;1.20;;;;;;;;;;5817919;28;20057;-75
2023/08/19 10:31:13;;;;;;;1.67;1.35;;;;;;;;;;5834781;28;20066;-75
2023/08/19 10:34:17;;;;;;;3.78;1.50;;;;;;;;;;5835494;28;20164;-75
2023/08/19 10:37:15;;;;;;;2.35;1.30;;;;;;;;;;5819034;28;20053;-74
2023/08/19 10:40:32;;;;;;;2.67;1.00;;;;;;;;;;5835809;28;20049;-75
2023/08/19 10:44:12;;;;;;;2.38;1.63;;;;;;;;;;5834838;28;20052;-74
2023/08/19 10:47:14;;;;;;;2.10;1.15;;;;;;;;;;5835021;28;20058;-75
2023/08/19 10:50:12;;;;;;;1.77;1.50;;;;;;;;;;5835131;28;20057;-73
2023/08/19 10:53:04;;;;;;;5.70;1.63;;;;;;;;;;5835291;28;20042;-74
2023/08/19 10:56:12;;;;;;;4.95;1.88;;;;;;;;;;5835526;28;20409;-75
2023/08/19 10:59:03;;;;;;;2.33;1.50;;;;;;;;;;5834819;28;20084;-76
2023/08/19 11:02:01;;;;;;;2.35;1.45;;;;;;;;;;5835109;28;20050;-75
2023/08/19 11:04:52;;;;;;;2.25;0.93;;;;;;;;;;5835593;28;20457;-75
2023/08/19 11:07:50;;;;;;;2.85;1.05;;;;;;;;;;5834628;28;20049;-75
2023/08/19 11:10:45;;;;;;;6.10;1.10;;;;;;;;;;5835154;28;20049;-74
2023/08/19 11:13:43;;;;;;;1.83;1.33;;;;;;;;;;5835272;28;20643;-75
2023/08/19 11:16:51;;;;;;;2.53;1.35;;;;;;;;;;5835246;28;20579;-74
2023/08/19 11:19:48;;;;;;;1.27;1.00;;;;;;;;;;5818589;28;20260;-76
2023/08/19 11:22:45;;;;;;;1.50;1.20;;;;;;;;;;5817865;28;20046;-75
2023/08/19 11:25:42;;;;;;;1.33;1.05;;;;;;;;;;5818474;28;20046;-73
2023/08/19 11:28:36;;;;;;;5.15;1.60;;;;;;;;;;5837089;28;20660;-74
2023/08/19 11:31:35;;;;;;;1.95;1.15;;;;;;;;;;5822296;28;20184;-75
2023/08/19 11:34:30;;;;;;;2.17;1.45;;;;;;;;;;5838480;28;20140;-75
2023/08/19 11:37:28;;;;;;;0.93;0.73;;;;;;;;;;5838448;28;20241;-74
2023/08/19 11:40:19;;;;;;;1.77;0.95;;;;;;;;;;5838536;28;20152;-74
2023/08/19 11:43:23;;;;;;;2.53;1.27;;;;;;;;;;5838608;28;20046;-75
2023/08/19 11:46:14;;;;;;;2.42;0.65;;;;;;;;;;5838790;28;20136;-75
2023/08/19 11:49:13;;;;;;;2.03;1.20;;;;;;;;;;5838217;28;20488;-75
2023/08/19 11:52:04;;;;;;;1.92;1.35;;;;;;;;;;5821187;28;20050;-75
2023/08/19 11:55:06;;;;;;;1.83;1.05;;;;;;;;;;5822169;28;20056;-74
2023/08/19 11:57:57;;;;;;;1.88;1.52;;;;;;;;;;5838193;28;20092;-75
2023/08/19 12:00:55;;;;;;;3.75;1.75;;;;;;;;;;5838573;28;20496;-75
2023/08/19 12:03:49;;;;;;;1.45;1.10;;;;;;;;;;5838701;28;20050;-75
2023/08/19 12:06:47;;;;;;;6.10;1.58;;;;;;;;;;5821873;28;20556;-74
2023/08/19 12:09:40;;;;;;;2.05;1.50;;;;;;;;;;5838693;28;20557;-75
2023/08/19 12:12:37;;;;;;;1.60;1.20;;;;;;;;;;5837965;28;20046;-74
2023/08/19 12:15:27;;;;;;;2.05;1.40;;;;;;;;;;5821170;28;20693;-74
2023/08/19 12:18:24;;;;;;;;;;;;;;;;;;5821724;28;20052;-74
2023/08/19 12:21:15;;;;;;;1.23;0.95;;;;;;;;;;5838047;28;19956;-74
2023/08/19 12:24:12;;;;;;;1.02;0.73;;;;;;;;;;5821391;28;20057;-75
2023/08/19 12:27:03;;;;;;;1.10;0.93;;;;;;;;;;5820214;28;20053;-75
2023/08/19 12:30:01;;;;;;;1.55;0.90;;;;;;;;;;5837642;28;20053;-73
2023/08/19 12:32:51;;;;;;;2.72;1.27;;;;;;;;;;5837339;28;20046;-73
2023/08/19 12:35:50;;;;;;;2.33;1.50;;;;;;;;;;5837306;28;20128;-74
2023/08/19 12:38:48;;;;;;;3.50;1.13;;;;;;;;;;5820899;28;20474;-74
2023/08/19 12:41:47;;;;;;;8.15;1.98;;;;;;;;;;5837004;28;20046;-75
2023/08/19 12:44:38;;;;;;;1.75;1.13;;;;;;;;;;5820238;28;20431;-74
2023/08/19 12:47:38;;;;;;;1.65;1.23;;;;;;;;;;5836976;28;20053;-74
2023/08/19 12:50:29;;;;;;;1.02;0.93;;;;;;;;;;5837351;28;20140;-74
2023/08/19 12:53:26;;;;;;;1.65;1.00;;;;;;;;;;5820808;28;20409;-75
2023/08/19 12:56:17;;;;;;;1.60;0.85;;;;;;;;;;5837494;28;20412;-74
2023/08/19 12:59:14;;;;;;;1.98;1.70;;;;;;;;;;5836673;28;20050;-75
2023/08/19 13:02:05;;;;;;;3.13;1.58;;;;;;;;;;5819383;28;20050;-74
2023/08/19 13:05:03;;;;;;;;;;;;;;;;;;5837804;28;20498;-74
2023/08/19 13:07:54;;;;;;;1.27;1.10;;;;;;;;;;5837039;28;20035;-74
2023/08/19 13:10:50;;;;;;;4.22;1.05;;;;;;;;;;5837059;28;20128;-76
2023/08/19 13:13:41;;;;;;;2.55;1.85;;;;;;;;;;5836254;28;20053;-73
2023/08/19 13:16:39;;;;;;;1.95;1.08;;;;;;;;;;5836830;28;20042;-75
2023/08/19 13:19:29;;;;;;;3.40;1.58;;;;;;;;;;5836948;28;20505;-75
2023/08/19 13:22:26;;;;;;;;;;;;;;;;;;5820505;28;20046;-74
2023/08/19 13:25:17;;;;;;;9.55;1.67;;;;;;;;;;5837059;28;20356;-74
2023/08/19 13:28:15;;;;;;;2.75;1.05;;;;;;;;;;5836173;28;20057;-74
2023/08/19 13:31:05;;;;;;;1.67;1.25;;;;;;;;;;5836212;28;20050;-74
2023/08/19 13:34:03;;;;;;;1.50;0.88;;;;;;;;;;5836665;28;20114;-73
2023/08/19 13:36:53;;;;;;;11.38;2.15;;;;;;;;;;5836404;28;20050;-74
2023/08/19 13:39:50;;;;;;;3.97;1.67;;;;;;;;;;5836292;28;20058;-74
2023/08/19 13:42:41;;;;;;;1.65;1.15;;;;;;;;;;5836314;28;20457;-76
2023/08/19 13:45:39;;;;;;;1.58;1.33;;;;;;;;;;5836295;28;20068;-74
2023/08/19 13:48:29;;;;;;;1.42;0.93;;;;;;;;;;5835934;28;20042;-75
2023/08/19 13:51:26;;;;;;;;;;;;;;;;;;5836142;28;20462;-74
2023/08/19 13:54:18;;;;;;;1.35;0.82;;;;;;;;;;5835741;28;19932;-74
2023/08/19 13:57:15;;;;;;;3.75;1.50;;;;;;;;;;5835858;28;20068;-74
2023/08/19 14:00:11;;;;;;;2.67;1.17;;;;;;;;;;5835963;28;20052;-73
2023/08/19 14:03:08;;;;;;;3.15;1.17;;;;;;;;;;5835564;28;20046;-74
2023/08/19 14:06:02;;;;;;;4.50;2.03;;;;;;;;;;5836297;28;20469;-74
2023/08/19 14:08:59;;;;;;;1.33;1.20;;;;;;;;;;5835846;28;20049;-75
2023/08/19 14:11:50;;;;;;;2.10;1.35;;;;;;;;;;5835681;28;20088;-74
2023/08/19 14:14:47;;;;;;;5.50;1.50;;;;;;;;;;5835605;28;20144;-76
2023/08/19 14:17:38;;;;;;;2.38;1.63;;;;;;;;;;5835948;28;20065;-75
2023/08/19 14:20:36;;;;;;;1.40;1.08;;;;;;;;;;5835471;28;20065;-74
2023/08/19 14:23:27;;;;;;;6.93;1.48;;;;;;;;;;5818256;28;20045;-74
2023/08/19 14:26:28;;;;;;;1.77;1.55;;;;;;;;;;5835508;28;20049;-74
2023/08/19 14:29:19;;;;;;;3.53;2.25;;;;;;;;;;5818585;28;20129;-75
2023/08/19 14:32:15;;;;;;;5.22;1.73;;;;;;;;;;5818950;28;20057;-73
2023/08/19 14:35:06;;;;;;;3.47;1.00;;;;;;;;;;5835075;28;20057;-74
2023/08/19 14:38:03;;;;;;;;;;;;;;;;;;5836275;28;20046;-74
2023/08/19 14:40:54;;;;;;;2.08;1.45;;;;;;;;;;5835558;28;19940;-74
2023/08/19 14:43:51;;;;;;;1.90;1.02;;;;;;;;;;5835884;28;20057;-73
2023/08/19 14:46:42;;;;;;;1.77;1.08;;;;;;;;;;5835465;28;20042;-75
2023/08/19 14:49:39;;;;;;;;;;;;;;;;;;5835407;28;20059;-73
2023/08/19 14:52:30;;;;;;;2.03;1.27;;;;;;;;;;5835422;28;19929;-74
2023/08/19 14:55:27;;;;;;;;;;;;;;;;;;5835836;28;20050;-74
2023/08/19 14:58:18;;;;;;;1.50;1.10;;;;;;;;;;5835158;28;19941;-74
2023/08/19 15:01:17;;;;;;;2.65;1.05;;;;;;;;;;5835442;28;20046;-75
2023/08/19 15:04:08;;;;;;;3.17;1.90;;;;;;;;;;5839973;28;20141;-74
2023/08/19 15:07:06;;;;;;;4.03;2.28;;;;;;;;;;5839755;28;20405;-74
2023/08/19 15:09:56;;;;;;;5.75;1.83;;;;;;;;;;5839905;28;20355;-73
2023/08/19 15:12:53;;;;;;;10.95;2.08;;;;;;;;;;5839438;28;20049;-74
2023/08/19 15:15:44;;;;;;;4.03;2.42;;;;;;;;;;5839051;28;20041;-74
2023/08/19 15:18:41;;;;;;;1.90;1.55;;;;;;;;;;5838816;28;20132;-74
2023/08/19 15:21:33;;;;;;;2.40;1.40;;;;;;;;;;5839376;28;20492;-75
2023/08/19 15:24:30;;;;;;;1.95;1.17;;;;;;;;;;5822441;28;20259;-74
2023/08/19 15:27:20;;;;;;;4.25;1.90;;;;;;;;;;5839247;28;20061;-75
2023/08/19 15:30:17;;;;;;;2.35;1.48;;;;;;;;;;5839150;28;20049;-74
2023/08/19 15:33:08;;;;;;;1.75;1.50;;;;;;;;;;5822055;28;20611;-75
2023/08/19 15:36:05;;;;;;;1.83;1.48;;;;;;;;;;5838851;28;20042;-74
2023/08/19 15:38:56;;;;;;;2.00;1.67;;;;;;;;;;5839246;28;20046;-75
2023/08/19 15:41:53;;;;;;;3.55;1.23;;;;;;;;;;5838883;28;20049;-74
2023/08/19 15:44:44;;;;;;;4.97;1.50;;;;;;;;;;5838401;28;20058;-75
2023/08/19 15:47:42;;;;;;;2.25;1.90;;;;;;;;;;5838951;28;20350;-75
2023/08/19 15:50:33;;;;;;;2.95;1.98;;;;;;;;;;5838431;28;20120;-75
2023/08/19 15:53:30;;;;;;;2.85;1.75;;;;;;;;;;5839051;28;20042;-74
2023/08/19 15:56:21;;;;;;;2.25;1.23;;;;;;;;;;5838195;28;20136;-75
2023/08/19 15:59:18;;;;;;;2.67;2.28;;;;;;;;;;5838501;28;20045;-75
2023/08/19 16:02:09;;;;;;;3.08;1.48;;;;;;;;;;5821133;28;20058;-75
2023/08/19 16:05:08;;;;;;;1.40;1.17;;;;;;;;;;5838339;28;20500;-75
2023/08/19 16:08:00;;;;;;;4.40;2.22;;;;;;;;;;5838395;28;20085;-75
2023/08/19 16:11:03;;;;;;;2.42;1.60;;;;;;;;;;5838732;28;20053;-75
2023/08/19 16:13:53;;;;;;;2.40;1.30;;;;;;;;;;5819958;28;20050;-75
2023/08/19 16:16:50;;;;;;;2.22;1.58;;;;;;;;;;5838147;28;20373;-75
2023/08/19 16:19:41;;;;;;;3.28;1.85;;;;;;;;;;5838235;28;20050;-74
2023/08/19 16:22:39;;;;;;;;;;;;;;;;;;5838120;28;20049;-75
2023/08/19 16:25:30;;;;;;;1.45;1.17;;;;;;;;;;5838645;28;19925;-75
2023/08/19 16:28:31;;;;;;;3.15;1.95;;;;;;;;;;5837310;28;20056;-75
2023/08/19 16:31:22;;;;;;;2.50;1.92;;;;;;;;;;5820960;28;20071;-74
2023/08/19 16:34:18;;;;;;;3.17;2.35;;;;;;;;;;5838064;28;20632;-75
2023/08/19 16:37:09;;;;;;;4.00;2.08;;;;;;;;;;5837426;28;20055;-75
2023/08/19 16:40:07;;;;;;;3.40;1.85;;;;;;;;;;5837475;28;20058;-74
2023/08/19 16:42:58;;;;;;;4.82;1.70;;;;;;;;;;5837658;28;20080;-74
2023/08/19 16:45:57;;;;;;;3.30;2.05;;;;;;;;;;5837519;28;20370;-74
2023/08/19 16:48:48;;;;;;;2.63;1.63;;;;;;;;;;5819433;28;20069;-75
2023/08/19 16:51:46;;;;;;;5.38;2.28;;;;;;;;;;5837301;28;20045;-76
2023/08/19 16:54:36;;;;;;;1.65;0.98;;;;;;;;;;5820014;28;20042;-74
2023/08/19 16:57:34;;;;;;;3.00;1.10;;;;;;;;;;5836974;28;20060;-74
2023/08/19 17:00:28;;;;;;;2.63;1.50;;;;;;;;;;5820401;28;20112;-75
2023/08/19 17:03:27;;;;;;;2.20;1.45;;;;;;;;;;5836743;28;20481;-74
2023/08/19 17:06:17;;;;;;;2.05;1.70;;;;;;;;;;5819980;28;20108;-74
2023/08/19 17:09:14;;;;;;;1.83;1.20;;;;;;;;;;5837130;28;20149;-74
2023/08/19 17:12:06;;;;;;;3.42;2.40;;;;;;;;;;5836936;28;20057;-74
2023/08/19 17:15:03;;;;;;;3.40;2.03;;;;;;;;;;5837264;28;20042;-74
2023/08/19 17:17:54;;;;;;;3.78;1.85;;;;;;;;;;5819213;28;20507;-75
2023/08/19 17:20:57;;;;;;;1.92;1.30;;;;;;;;;;5836972;28;20353;-75
2023/08/19 17:23:48;;;;;;;3.30;1.80;;;;;;;;;;5836999;28;20070;-74
2023/08/19 17:26:46;;;;;;;5.47;1.95;;;;;;;;;;5836676;28;20052;-74
2023/08/19 17:29:36;;;;;;;2.67;1.55;;;;;;;;;;5803315;28;20385;-74
2023/08/19 17:32:34;;;;;;;2.57;1.83;;;;;;;;;;5836946;28;20057;-74
2023/08/19 17:35:25;;;;;;;2.92;1.38;;;;;;;;;;5836520;28;20507;-75